White Oak, PA (15131)

11:01 PM EDT on September 04, 2015 (GMT -0400)
White Oak, PA 15131-1531 | | Change Station
CLOSE
Current Station
Personal Weather Station
Location: White Oak, PA
Elevation: 1076 ft
Nearby Weather Stations

Elev 1076 ft 40.35 °N, 79.82 °W | Updated 7 seconds ago

Partly Cloudy
Partly Cloudy
72.3 °F
Feels Like 70 °F
N
0.0
Wind Variable Wind from SE
Gusts 0.0 mph

Today
High -- | Low -- °F
--% Chance of Precip.
Yesterday
High -- | Low -- °F
Precip. -- in
6:49 AM 7:46 PM
Waning Gibbous, 53% visible
Pressure 30.11 in
Visibility 6.0 miles
Clouds Clear
Heat Index 70 °F
Dew Point 68 °F
Humidity 88%
Rainfall 0.00 in
Snow Depth Not available.
UV 0 out of 12
Pollen 9.00 out of 12
Air Quality Not available.
Flu Activity Not available.
METAR KAGC 050253Z 08004KT 6SM HZ CLR 22/17 A3012 RMK AO2 SLP195 T02170167 50009
Pressure 30.11 in
Visibility 6.0 miles
Clouds Clear
Heat Index 70 °F
Dew Point 68 °F
Humidity 88%
Rainfall 0.00 in
Snow Depth Not available.
UV 0 out of 12
Pollen 9.00 out of 12
Air Quality Not available.
Flu Activity Not available.
METAR KAGC 050253Z 08004KT 6SM HZ CLR 22/17 A3012 RMK AO2 SLP195 T02170167 50009

10-Day Weather Forecast

×

Almanac

Astronomy

Sep. 04, 2015 Rise Set
Actual Time
Civil Twilight
Nautical Twilight
Astronomical Twilight
Moon
Length of Visible Light
Length of Day
Tomorrow will be .
, % of the Moon is Illuminated

Today's Extremes

State Highs State Lows

Community

WunderPhotos

Upload Photos

1,852,400 photos uploaded!

WunderBlogs® & News

Nearby

Air Quality

  Air Quality AQ Index Pollutant
Not available.

Snow Depth

Station Depth Elevation

Earthquake Activity

City Distance Mag. Time & Date
Minimum magnitude displayed is 2.5.

Coastal Water Temperatures

Place Temperature

Stations

Nearby Weather Stations

Station Location Temp. Windchill Dew Point Humidity Wind Precip. Elev Updated Type